Time;durP1;ratioP1;P1;durP2;ratioP2;P2;SDS_P1;SDS_P2;PMS_P1;PMS_P2;Temp;Humidity;BMP_temperature;BMP_pressure;BME280_temperature;BME280_humidity;BME280_pressure;Samples;Min_cycle;Max_cycle;Signal;HPM_P1;HPM_P2
2022/05/05 00:02:41;;;;;;;9.02;4.25;;;;;;;14.10;48.18;100088.28;10285167;28;20155;-80
2022/05/05 00:07:43;;;;;;;7.40;4.32;;;;;;;14.11;48.10;100092.59;10278766;28;20123;-81
2022/05/05 00:18:06;;;;;;;9.68;4.13;;;;;;;14.00;47.88;100100.44;10282253;28;20125;-78
2022/05/05 00:23:09;;;;;;;8.38;4.10;;;;;;;13.85;48.51;100090.13;10282516;28;20054;-79
2022/05/05 00:28:10;;;;;;;10.82;4.22;;;;;;;13.74;48.68;100088.25;10284070;28;20047;-79
2022/05/05 00:33:12;;;;;;;9.48;4.63;;;;;;;13.85;48.40;100090.97;10296987;28;20495;-79
2022/05/05 00:38:17;;;;;;;8.68;4.05;;;;;;;13.82;48.69;100087.75;10283370;28;20179;-79
2022/05/05 00:43:20;;;;;;;7.95;4.07;;;;;;;13.83;48.56;100089.41;10281521;28;20152;-79
2022/05/05 00:48:28;;;;;;;8.30;4.60;;;;;;;13.70;49.36;100092.03;10281239;28;20470;-79
2022/05/05 00:53:30;;;;;;;7.72;4.00;;;;;;;13.47;49.03;100100.69;10283911;28;20275;-79
2022/05/05 00:58:33;;;;;;;11.38;4.90;;;;;;;13.44;49.67;100100.91;10283199;28;20113;-79
2022/05/05 01:03:37;;;;;;;7.80;4.50;;;;;;;13.37;49.58;100099.63;10278196;28;20530;-79
2022/05/05 01:08:39;;;;;;;9.57;4.88;;;;;;;13.47;49.33;100098.06;10297365;28;20583;-79
2022/05/05 01:13:42;;;;;;;10.57;5.35;;;;;;;13.42;50.51;100100.13;10285545;28;20113;-79
2022/05/05 01:18:44;;;;;;;7.90;4.28;;;;;;;13.35;50.54;100094.44;10278331;28;20161;-79
2022/05/05 01:23:46;;;;;;;7.72;4.63;;;;;;;13.42;50.52;100100.13;10295472;28;20074;-79
2022/05/05 01:28:49;;;;;;;11.65;4.95;;;;;;;13.43;50.60;100100.06;10279970;28;20474;-79
2022/05/05 01:33:51;;;;;;;8.00;4.80;;;;;;;13.43;50.90;100101.84;10291204;28;20175;-79
2022/05/05 01:38:55;;;;;;;8.80;4.97;;;;;;;13.39;51.39;100100.34;10275774;28;20042;-79
2022/05/05 01:43:57;;;;;;;7.10;4.82;;;;;;;13.09;52.18;100105.06;10283901;28;20121;-79
2022/05/05 01:48:58;;;;;;;10.18;4.75;;;;;;;13.15;52.02;100107.28;10282964;28;20065;-79
2022/05/05 01:54:00;;;;;;;9.13;5.05;;;;;;;13.20;51.59;100107.78;10283960;28;20067;-78
2022/05/05 01:59:02;;;;;;;8.90;4.70;;;;;;;13.25;50.96;100110.97;10285846;28;20050;-78
2022/05/05 02:04:04;;;;;;;10.85;5.15;;;;;;;13.20;51.73;100106.03;10284911;28;20058;-78
2022/05/05 02:09:06;;;;;;;8.77;4.40;;;;;;;13.10;52.24;100110.22;10286161;28;20484;-78
2022/05/05 02:14:08;;;;;;;9.40;4.80;;;;;;;13.08;52.33;100119.97;10298002;28;20058;-78
2022/05/05 02:19:10;;;;;;;11.57;5.10;;;;;;;13.00;52.27;100116.19;10291630;28;20082;-78
2022/05/05 02:24:11;;;;;;;8.30;5.05;;;;;;;12.96;52.48;100115.53;10293784;28;20051;-78
2022/05/05 02:29:14;;;;;;;7.88;4.90;;;;;;;12.96;52.52;100120.78;10293108;28;20050;-79
2022/05/05 02:34:15;;;;;;;19.45;5.00;;;;;;;12.96;52.17;100120.78;10289510;28;20894;-78
2022/05/05 02:39:17;;;;;;;10.30;4.88;;;;;;;12.97;51.82;100122.47;10293451;28;20536;-78
2022/05/05 02:44:19;;;;;;;10.82;5.30;;;;;;;12.95;51.83;100119.94;10314752;28;20093;-78
2022/05/05 02:49:21;;;;;;;10.60;5.07;;;;;;;12.88;52.55;100123.09;10292008;28;20059;-78
2022/05/05 02:59:44;;;;;;;9.23;5.85;;;;;;;12.82;53.31;100129.56;10291678;28;20132;-79
2022/05/05 03:04:47;;;;;;;12.55;5.60;;;;;;;12.81;53.34;100132.28;10291868;28;20507;-78
2022/05/05 03:09:49;;;;;;;13.73;6.47;;;;;;;12.79;53.42;100132.41;10285849;28;20129;-77
2022/05/05 03:14:51;;;;;;;10.27;5.47;;;;;;;12.71;53.64;100134.69;10287512;28;20410;-77
2022/05/05 03:19:53;;;;;;;12.23;5.97;;;;;;;12.64;54.12;100135.19;10270595;28;20122;-78
2022/05/05 03:24:56;;;;;;;10.90;5.80;;;;;;;12.52;54.47;100139.44;10281400;28;20923;-78
2022/05/05 03:29:59;;;;;;;9.63;5.53;;;;;;;12.44;54.46;100143.47;10288222;28;20054;-78
2022/05/05 03:35:02;;;;;;;10.73;6.35;;;;;;;12.41;54.27;100143.69;10289233;28;21012;-78
2022/05/05 03:40:04;;;;;;;14.02;6.95;;;;;;;12.42;54.50;100147.97;10285977;28;20173;-78
2022/05/05 03:45:07;;;;;;;8.05;5.45;;;;;;;12.36;54.12;100153.63;10285681;28;20111;-79
2022/05/05 03:50:09;;;;;;;11.02;5.80;;;;;;;12.30;54.16;100151.38;10285517;28;20586;-79
2022/05/05 03:55:11;;;;;;;10.32;5.35;;;;;;;12.31;53.95;100159.19;10288167;28;20061;-79
2022/05/05 04:00:13;;;;;;;12.30;5.57;;;;;;;12.27;53.94;100155.03;10282197;28;20097;-79
2022/05/05 04:05:16;;;;;;;8.73;5.30;;;;;;;12.29;53.97;100158.44;10301011;28;20177;-78
2022/05/05 04:10:18;;;;;;;10.85;5.53;;;;;;;12.31;54.12;100160.97;10285826;28;20090;-79
2022/05/05 04:15:19;;;;;;;8.20;5.35;;;;;;;12.32;54.31;100166.09;10284746;28;20165;-79
2022/05/05 04:20:21;;;;;;;9.00;5.53;;;;;;;12.33;54.29;100166.94;10288058;28;20062;-79
2022/05/05 04:25:23;;;;;;;10.13;6.07;;;;;;;12.37;54.52;100171.91;10277735;28;20082;-79
2022/05/05 04:30:26;;;;;;;14.55;5.57;;;;;;;12.43;54.51;100182.00;10288999;28;20221;-79
2022/05/05 04:35:28;;;;;;;13.13;5.28;;;;;;;12.55;52.95;100188.25;10281258;28;20129;-79
2022/05/05 04:40:31;;;;;;;8.23;5.78;;;;;;;12.83;53.08;100182.91;10281058;28;20935;-79
2022/05/05 04:45:32;;;;;;;10.32;5.20;;;;;;;13.33;51.74;100190.91;10284636;28;20149;-78
2022/05/05 04:50:34;;;;;;;9.55;5.18;;;;;;;13.18;52.03;100196.34;10282526;28;20143;-79
2022/05/05 04:55:37;;;;;;;11.35;5.30;;;;;;;13.24;51.71;100198.56;10287567;28;20050;-79
2022/05/05 05:00:39;;;;;;;12.15;5.40;;;;;;;13.36;51.40;100209.09;10280392;28;20058;-79
2022/05/05 05:05:41;;;;;;;12.48;4.90;;;;;;;13.36;51.63;100213.50;10278964;28;20047;-79
2022/05/05 05:10:43;;;;;;;9.70;5.15;;;;;;;13.35;51.62;100222.34;10277788;28;20050;-78
2022/05/05 05:15:50;;;;;;;10.20;4.78;;;;;;;13.23;51.28;100226.59;10282704;28;20064;-79
2022/05/05 05:20:52;;;;;;;13.18;5.25;;;;;;;13.33;50.94;100227.69;10277315;28;20057;-78
2022/05/05 05:25:54;;;;;;;12.43;4.70;;;;;;;13.39;50.33;100236.97;10276052;28;20055;-78
2022/05/05 05:30:56;;;;;;;11.55;4.97;;;;;;;13.40;49.40;100243.88;10286867;28;20102;-78
2022/05/05 05:35:58;;;;;;;10.43;4.88;;;;;;;13.57;48.64;100239.25;10278642;28;20102;-78
2022/05/05 05:41:01;;;;;;;12.68;4.93;;;;;;;13.54;48.49;100243.84;10265923;28;20493;-78
2022/05/05 05:46:03;;;;;;;17.05;4.90;;;;;;;13.59;48.39;100249.66;10283476;28;20505;-78
2022/05/05 05:51:08;;;;;;;9.63;4.72;;;;;;;13.75;47.71;100253.78;10287723;28;20058;-78
2022/05/05 05:56:10;;;;;;;12.80;4.75;;;;;;;13.88;47.28;100261.66;10279204;28;20046;-79
2022/05/05 06:01:12;;;;;;;14.77;4.72;;;;;;;14.12;46.76;100253.88;10287048;28;20140;-79
2022/05/05 06:06:13;;;;;;;14.20;4.25;;;;;;;14.36;45.66;100258.28;10289299;28;20061;-78
2022/05/05 06:11:17;;;;;;;11.05;4.30;;;;;;;14.70;44.57;100271.69;10288342;28;20062;-78
2022/05/05 06:16:19;;;;;;;14.15;5.07;;;;;;;15.05;44.01;100259.47;10290407;28;20149;-78
2022/05/05 06:21:21;;;;;;;9.48;4.30;;;;;;;15.52;43.04;100267.38;10282864;28;20148;-79
2022/05/05 06:26:24;;;;;;;12.02;4.68;;;;;;;15.91;42.68;100259.09;10285932;28;20061;-79
2022/05/05 06:31:26;;;;;;;11.77;4.53;;;;;;;16.08;42.22;100271.00;10292471;28;20062;-78
2022/05/05 06:36:28;;;;;;;8.68;4.65;;;;;;;16.13;41.38;100272.31;10287877;28;20046;-79
2022/05/05 06:41:30;;;;;;;9.73;4.60;;;;;;;15.88;41.59;100282.22;10271798;28;20145;-78
2022/05/05 06:46:32;;;;;;;11.85;4.68;;;;;;;16.19;41.47;100276.28;10291258;28;20125;-78
2022/05/05 06:51:34;;;;;;;12.48;4.47;;;;;;;16.35;40.40;100273.28;10287786;28;20074;-78
2022/05/05 06:56:37;;;;;;;8.57;4.30;;;;;;;16.53;40.62;100285.09;10263028;28;20133;-77
2022/05/05 07:01:54;;;;;;;12.13;5.03;;;;;;;16.59;40.06;100279.31;10283360;28;20053;-78
2022/05/05 07:06:56;;;;;;;14.48;5.30;;;;;;;16.49;39.96;100286.28;10280722;28;20051;-78
2022/05/05 07:11:58;;;;;;;10.95;4.60;;;;;;;16.60;40.61;100291.56;10288768;28;20146;-78
2022/05/05 07:17:00;;;;;;;10.93;4.50;;;;;;;16.55;41.10;100278.72;10287649;28;20042;-78
2022/05/05 07:22:03;;;;;;;12.07;4.70;;;;;;;16.58;41.06;100290.84;10284773;28;20054;-78
2022/05/05 07:27:05;;;;;;;15.82;5.13;;;;;;;17.14;39.91;100287.13;10290426;28;20600;-78
2022/05/05 07:32:08;;;;;;;14.00;4.90;;;;;;;17.51;39.35;100291.13;10283920;28;20067;-78
2022/05/05 07:37:10;;;;;;;10.70;4.40;;;;;;;18.15;38.55;100299.78;10287549;28;20485;-80
2022/05/05 07:42:12;;;;;;;11.13;4.70;;;;;;;19.00;37.43;100295.00;10285539;28;20112;-80
2022/05/05 07:47:14;;;;;;;14.88;5.00;;;;;;;20.07;35.45;100293.91;10283821;28;20085;-80
2022/05/05 07:52:20;;;;;;;13.55;5.13;;;;;;;20.36;32.77;100290.38;10284770;28;21069;-81
2022/05/05 07:57:23;;;;;;;12.43;5.07;;;;;;;20.15;32.58;100296.69;10291931;28;20051;-81
2022/05/05 08:02:24;;;;;;;11.23;4.93;;;;;;;20.01;32.42;100299.81;10252606;28;20085;-80
2022/05/05 08:07:30;;;;;;;12.95;4.28;;;;;;;19.70;32.90;100310.72;10335046;28;20133;-81
2022/05/05 08:12:34;;;;;;;13.48;4.28;;;;;;;19.57;33.62;100313.66;10330903;28;20496;-81
2022/05/05 08:17:40;;;;;;;12.63;5.25;;;;;;;19.44;32.89;100311.28;10326907;28;20571;-81
2022/05/05 08:22:42;;;;;;;17.25;4.53;;;;;;;19.26;33.84;100320.88;10325619;28;20112;-80
2022/05/05 08:33:05;;;;;;;14.00;4.40;;;;;;;18.93;33.96;100329.16;10330697;28;20123;-81
2022/05/05 08:38:07;;;;;;;10.32;4.45;;;;;;;19.13;34.54;100328.28;10326384;28;20476;-81
2022/05/05 08:43:09;;;;;;;10.50;4.93;;;;;;;19.36;33.91;100337.66;10327525;28;20100;-81
2022/05/05 08:48:12;;;;;;;12.68;4.65;;;;;;;19.67;33.54;100332.22;10322537;28;20590;-81
2022/05/05 08:53:15;;;;;;;17.08;5.32;;;;;;;19.64;33.19;100338.66;10326819;28;20045;-81
2022/05/05 08:58:17;;;;;;;9.70;4.72;;;;;;;20.09;33.53;100333.63;10326632;28;20455;-81
2022/05/05 09:03:20;;;;;;;11.60;4.88;;;;;;;21.08;31.88;100325.88;10341383;28;20488;-80
2022/05/05 09:08:32;;;;;;;14.80;5.30;;;;;;;21.66;30.33;100321.00;10326140;28;20092;-79
2022/05/05 09:13:37;;;;;;;12.68;6.28;;;;;;;22.33;29.27;100318.53;10326882;28;20058;-80
2022/05/05 09:18:41;;;;;;;14.50;6.55;;;;;;;22.39;28.58;100320.56;10328343;28;20077;-79
2022/05/05 09:29:20;;;;;;;14.85;7.28;;;;;;;22.64;27.29;100322.38;10320035;28;20150;-79
2022/05/05 09:34:22;;;;;;;19.77;8.15;;;;;;;22.77;27.85;100319.31;10321807;28;20136;-80
2022/05/05 09:39:34;;;;;;;14.65;7.82;;;;;;;22.11;28.21;100328.91;10325559;28;20329;-79
2022/05/05 09:44:46;;;;;;;21.90;8.60;;;;;;;21.77;28.22;100318.94;10325491;28;20054;-79
2022/05/05 09:49:58;;;;;;;17.85;9.15;;;;;;;21.18;28.86;100325.78;10324472;28;20050;-79
2022/05/05 10:05:33;;;;;;;19.75;8.10;;;;;;;20.49;30.98;100342.19;10315556;28;20459;-78
2022/05/05 10:10:36;;;;;;;14.18;8.18;;;;;;;20.30;30.59;100344.91;10323467;28;20054;-79
2022/05/05 10:15:38;;;;;;;20.35;8.48;;;;;;;20.04;31.40;100346.50;10321486;28;20160;-79
2022/05/05 10:21:00;;;;;;;16.88;8.40;;;;;;;20.18;32.00;100340.72;10329885;28;20100;-79
2022/05/05 10:26:02;;;;;;;14.35;6.38;;;;;;;20.36;32.69;100343.50;10326545;28;20474;-79
2022/05/05 10:31:10;;;;;;;13.15;5.82;;;;;;;20.29;33.08;100340.59;10330858;28;20112;-79
2022/05/05 10:36:22;;;;;;;16.25;6.53;;;;;;;20.12;33.63;100343.97;10330772;28;20378;-79
2022/05/05 10:41:30;;;;;;;15.02;6.80;;;;;;;20.09;33.99;100346.91;10336400;28;20106;-79
2022/05/05 10:46:50;;;;;;;17.90;7.40;;;;;;;20.14;32.42;100342.84;10334123;28;20171;-79
2022/05/05 10:52:10;;;;;;;;;;;;;;;20.16;33.17;100348.00;10338564;28;20046;-79
2022/05/05 10:57:27;;;;;;;14.82;7.57;;;;;;;20.46;32.85;100331.03;10335891;28;19925;-79
2022/05/05 11:02:29;;;;;;;16.05;7.97;;;;;;;20.11;33.34;100347.59;10317044;28;20061;-79
2022/05/05 11:07:49;;;;;;;15.00;9.48;;;;;;;20.12;31.64;100338.66;10320443;28;20169;-79
2022/05/05 11:12:51;;;;;;;17.55;8.27;;;;;;;20.51;34.24;100339.38;10321878;28;20945;-80
2022/05/05 11:23:24;;;;;;;18.58;8.98;;;;;;;20.44;33.72;100340.97;10312772;28;20140;-80
2022/05/05 11:28:30;;;;;;;15.95;8.50;;;;;;;21.08;31.27;100336.50;10325807;28;20081;-79
2022/05/05 11:33:35;;;;;;;16.65;8.52;;;;;;;21.13;31.53;100336.06;10322106;28;20560;-79
2022/05/05 11:38:42;;;;;;;16.48;9.25;;;;;;;21.18;30.47;100333.78;10341587;28;20161;-79
2022/05/05 11:49:08;;;;;;;15.43;7.97;;;;;;;21.39;31.75;100334.38;10324832;28;20050;-79
2022/05/05 11:54:23;;;;;;;17.20;8.30;;;;;;;21.32;31.03;100333.28;10324777;28;20050;-79
2022/05/05 12:04:58;;;;;;;15.55;7.78;;;;;;;21.36;31.25;100326.69;10324641;28;20058;-80
2022/05/05 12:10:08;;;;;;;16.40;9.48;;;;;;;21.12;31.10;100332.56;10327698;28;20049;-80
2022/05/05 12:15:12;;;;;;;15.68;8.80;;;;;;;21.04;31.64;100335.97;10321232;28;20944;-80
2022/05/05 12:20:17;;;;;;;15.98;8.48;;;;;;;20.94;32.32;100340.50;10327792;28;20082;-80
2022/05/05 12:25:20;;;;;;;18.83;9.07;;;;;;;20.80;32.69;100346.31;10324220;28;20093;-80
2022/05/05 12:30:40;;;;;;;16.42;9.10;;;;;;;20.91;32.05;100340.78;10316919;28;20398;-79
2022/05/05 12:35:44;;;;;;;19.63;10.32;;;;;;;21.36;32.32;100340.84;10300393;28;20109;-79
2022/05/05 12:40:46;;;;;;;24.73;11.25;;;;;;;21.53;31.25;100340.03;10316578;28;20051;-80
2022/05/05 12:45:49;;;;;;;16.92;10.00;;;;;;;21.43;31.61;100341.06;10323748;28;20057;-80
2022/05/05 12:50:53;;;;;;;17.40;11.00;;;;;;;21.17;32.38;100346.22;10321312;28;20880;-80
2022/05/05 13:01:26;;;;;;;21.10;10.93;;;;;;;21.32;31.90;100338.63;10323342;28;20053;-79
2022/05/05 13:06:28;;;;;;;18.15;11.30;;;;;;;21.16;31.84;100341.91;10319893;28;20058;-79
2022/05/05 13:11:29;;;;;;;18.95;10.75;;;;;;;21.07;32.11;100348.13;10320103;28;20159;-79
2022/05/05 13:16:34;;;;;;;17.73;11.00;;;;;;;21.05;32.49;100345.59;10314659;28;20527;-79
2022/05/05 13:21:38;;;;;;;18.75;11.35;;;;;;;20.87;32.50;100352.69;10314540;28;20041;-79
2022/05/05 13:26:45;;;;;;;22.27;11.90;;;;;;;20.85;32.70;100346.69;10318599;28;20100;-79
2022/05/05 13:31:47;;;;;;;19.40;11.88;;;;;;;20.61;32.98;100343.72;10314768;28;20081;-79
2022/05/05 13:36:49;;;;;;;17.80;10.68;;;;;;;20.39;33.92;100346.69;10314188;28;20340;-79
2022/05/05 13:41:51;;;;;;;18.13;11.45;;;;;;;20.37;33.99;100340.69;10308516;28;20058;-79
2022/05/05 13:46:53;;;;;;;20.75;11.93;;;;;;;20.12;34.08;100343.97;10323179;28;20511;-79
2022/05/05 13:51:57;;;;;;;22.35;12.45;;;;;;;20.02;34.47;100346.63;10315705;28;20191;-78
2022/05/05 13:57:17;;;;;;;19.27;11.80;;;;;;;20.11;34.81;100342.28;10328811;28;20515;-82
2022/05/05 14:02:20;;;;;;;21.60;11.52;;;;;;;19.97;34.76;100343.56;10319032;28;20535;-82
2022/05/05 14:12:10;;;;;;;16.80;11.13;;;;;;;20.06;34.81;100334.75;10328302;28;20073;-81
2022/05/05 14:12:43;;;;;;;20.02;10.80;;;;;;;19.96;34.75;100344.53;10329579;28;20152;-82
2022/05/05 14:17:48;;;;;;;16.75;10.60;;;;;;;19.97;35.30;100335.59;10335054;28;20140;-81
2022/05/05 14:22:51;;;;;;;18.58;10.68;;;;;;;20.04;35.20;100339.38;10320885;28;20059;-82
2022/05/05 14:27:53;;;;;;;16.10;10.30;;;;;;;20.15;35.35;100333.06;10333542;28;20108;-80
2022/05/05 14:32:55;;;;;;;14.52;8.93;;;;;;;20.22;35.35;100335.00;10330988;28;20513;-80
2022/05/05 14:37:57;;;;;;;17.67;10.48;;;;;;;20.17;35.47;100337.22;10328936;28;20053;-81
2022/05/05 14:42:59;;;;;;;15.68;9.60;;;;;;;20.34;35.03;100327.69;10326539;28;20543;-81
2022/05/05 14:48:03;;;;;;;14.32;8.82;;;;;;;20.13;35.68;100329.72;10330905;28;20054;-81
2022/05/05 14:53:05;;;;;;;15.20;9.10;;;;;;;20.37;35.10;100329.22;10325986;28;20456;-81
2022/05/05 14:58:08;;;;;;;17.92;8.73;;;;;;;20.61;35.31;100327.78;10335397;28;20147;-81
2022/05/05 15:03:11;;;;;;;16.65;9.20;;;;;;;20.82;34.50;100322.22;10328713;28;20148;-80
2022/05/05 15:08:13;;;;;;;16.45;8.70;;;;;;;20.88;34.87;100319.81;10332642;28;20046;-81
2022/05/05 15:13:16;;;;;;;15.85;8.95;;;;;;;21.06;34.19;100323.38;10323478;28;20061;-81
2022/05/05 15:18:19;;;;;;;16.23;9.30;;;;;;;21.25;33.96;100310.94;10329232;28;20054;-81
2022/05/05 15:23:22;;;;;;;16.63;9.45;;;;;;;21.12;34.36;100313.94;10329525;28;20058;-81
2022/05/05 15:28:24;;;;;;;14.35;8.30;;;;;;;21.18;34.63;100315.16;10329115;28;20603;-81
2022/05/05 15:33:27;;;;;;;17.60;8.70;;;;;;;21.15;34.11;100331.44;10327730;28;20116;-81
2022/05/05 15:38:29;;;;;;;13.50;8.52;;;;;;;20.80;34.45;100324.19;10329758;28;20054;-81
2022/05/05 15:43:31;;;;;;;17.42;8.88;;;;;;;20.84;34.29;100326.44;10329709;28;20116;-81
2022/05/05 15:48:32;;;;;;;14.65;8.43;;;;;;;20.71;33.91;100330.38;10332476;28;20142;-81
2022/05/05 15:53:34;;;;;;;18.40;7.68;;;;;;;20.74;34.78;100335.44;10329105;28;20058;-81
2022/05/05 15:58:36;;;;;;;12.70;8.10;;;;;;;20.72;34.51;100332.88;10329331;28;20527;-81
2022/05/05 16:03:38;;;;;;;15.07;8.10;;;;;;;20.76;35.43;100334.31;10325203;28;20082;-81
2022/05/05 16:08:40;;;;;;;14.77;7.60;;;;;;;20.91;34.62;100324.84;10332025;28;20100;-80
2022/05/05 16:13:43;;;;;;;11.98;7.30;;;;;;;20.73;33.97;100334.56;10327900;28;20054;-81
2022/05/05 16:18:45;;;;;;;10.77;5.20;;;;;;;20.77;33.29;100325.31;10330513;28;20054;-82
2022/05/05 16:23:47;;;;;;;10.85;4.55;;;;;;;20.88;32.38;100329.63;10333630;28;20143;-83
2022/05/05 16:34:10;;;;;;;10.20;4.60;;;;;;;21.25;31.24;100324.22;10332037;28;20543;-83
2022/05/05 16:39:12;;;;;;;10.90;3.92;;;;;;;20.95;31.66;100338.66;10334639;28;20058;-83
2022/05/05 16:44:14;;;;;;;8.73;3.70;;;;;;;21.13;31.86;100338.72;10333120;28;20054;-83
2022/05/05 16:49:19;;;;;;;9.15;3.95;;;;;;;20.98;31.52;100333.06;10327108;28;21132;-81
2022/05/05 16:54:21;;;;;;;8.02;3.80;;;;;;;20.62;31.47;100334.75;10322234;28;20149;-80
2022/05/05 16:59:23;;;;;;;8.15;3.58;;;;;;;20.47;32.15;100336.19;10320860;28;20145;-80
2022/05/05 17:04:25;;;;;;;8.13;3.42;;;;;;;20.29;33.14;100336.09;10320550;28;20143;-80
2022/05/05 17:09:26;;;;;;;10.38;4.07;;;;;;;20.02;32.19;100332.50;10328699;28;20124;-80
2022/05/05 17:14:28;;;;;;;8.00;3.33;;;;;;;19.78;33.22;100342.72;10330093;28;20160;-80
2022/05/05 17:19:30;;;;;;;14.88;3.78;;;;;;;19.83;33.55;100348.44;10320008;28;20054;-80
2022/05/05 17:24:32;;;;;;;10.70;3.50;;;;;;;20.05;32.83;100342.88;10324542;28;20057;-80
2022/05/05 17:29:35;;;;;;;10.63;3.72;;;;;;;19.92;32.50;100342.31;10327154;28;20151;-80
2022/05/05 17:34:37;;;;;;;47.67;7.45;;;;;;;19.91;33.06;100345.97;10323626;28;20440;-80
2022/05/05 17:39:39;;;;;;;9.10;3.63;;;;;;;19.78;32.91;100351.50;10322975;28;20046;-80
2022/05/05 17:55:24;;;;;;;7.82;3.30;;;;;;;19.59;33.52;100364.75;10316081;28;20008;-81
2022/05/05 18:00:27;;;;;;;11.25;3.50;;;;;;;19.56;33.94;100366.88;10322867;28;20054;-80
2022/05/05 18:05:30;;;;;;;9.65;3.22;;;;;;;19.37;34.69;100365.03;10325815;28;20049;-80
2022/05/05 18:10:31;;;;;;;8.75;3.15;;;;;;;19.19;35.02;100366.66;10316923;28;20200;-80
2022/05/05 18:15:34;;;;;;;10.02;3.10;;;;;;;19.09;35.24;100373.75;10323008;28;20136;-80
2022/05/05 18:20:37;;;;;;;7.30;3.63;;;;;;;18.80;36.02;100381.56;10322199;28;20053;-80
2022/05/05 18:25:40;;;;;;;9.35;3.30;;;;;;;18.77;36.63;100389.75;10309553;28;20054;-80
2022/05/05 18:30:43;;;;;;;8.13;3.42;;;;;;;18.50;37.11;100389.50;10315780;28;20062;-81
2022/05/05 18:35:46;;;;;;;10.00;3.47;;;;;;;18.29;37.18;100386.88;10322201;28;20061;-80
2022/05/05 18:40:48;;;;;;;6.95;3.30;;;;;;;18.19;37.77;100391.25;10323822;28;20062;-81
2022/05/05 18:45:52;;;;;;;7.07;3.60;;;;;;;18.11;38.52;100401.63;10320591;28;20117;-81
2022/05/05 18:50:54;;;;;;;7.60;3.60;;;;;;;17.99;38.38;100412.38;10323958;28;20136;-81
2022/05/05 18:55:56;;;;;;;8.73;3.40;;;;;;;17.87;38.97;100413.38;10329530;28;20112;-81
2022/05/05 19:00:58;;;;;;;8.93;3.20;;;;;;;17.76;39.23;100416.91;10322774;28;21025;-80
2022/05/05 19:06:00;;;;;;;8.90;3.20;;;;;;;17.61;39.44;100426.09;10326588;28;20116;-81
2022/05/05 19:11:02;;;;;;;8.23;3.50;;;;;;;17.38;40.07;100429.75;10326472;28;20123;-81
2022/05/05 19:16:04;;;;;;;9.38;3.53;;;;;;;17.20;40.48;100439.13;10326680;28;20152;-81
2022/05/05 19:21:06;;;;;;;8.20;3.70;;;;;;;16.94;40.48;100451.72;10327128;28;20472;-81
2022/05/05 19:26:07;;;;;;;12.25;3.67;;;;;;;16.77;41.35;100462.75;10320871;28;20050;-81
2022/05/05 19:31:09;;;;;;;6.70;3.50;;;;;;;16.68;41.58;100471.38;10326062;28;20729;-81
2022/05/05 19:36:11;;;;;;;7.38;3.58;;;;;;;16.52;41.86;100460.31;10330933;28;20054;-81
2022/05/05 19:41:13;;;;;;;8.52;3.50;;;;;;;16.49;41.96;100471.13;10320011;28;20496;-81
2022/05/05 19:46:15;;;;;;;8.18;3.35;;;;;;;16.44;42.19;100481.16;10328150;28;20483;-81
2022/05/05 19:51:17;;;;;;;9.23;3.70;;;;;;;16.30;41.55;100487.44;10329701;28;20058;-81
2022/05/05 20:01:39;;;;;;;9.95;4.00;;;;;;;15.99;43.27;100494.16;10320665;28;20053;-81
2022/05/05 20:12:03;;;;;;;8.38;3.55;;;;;;;15.81;43.87;100513.09;10324450;28;20046;-81
2022/05/05 20:17:05;;;;;;;11.00;4.00;;;;;;;15.80;43.87;100506.13;10326070;28;20097;-81
2022/05/05 20:22:10;;;;;;;10.20;4.18;;;;;;;15.71;44.31;100510.31;10326821;28;20057;-81
2022/05/05 20:27:53;;;;;;;10.65;3.58;;;;;;;15.56;45.52;100521.06;10323655;28;20061;-81
2022/05/05 20:32:55;;;;;;;10.68;4.20;;;;;;;15.49;45.44;100527.72;10325147;28;20066;-81
2022/05/05 20:37:57;;;;;;;8.02;4.10;;;;;;;15.38;45.55;100526.69;10324119;28;20116;-81
2022/05/05 20:42:59;;;;;;;7.88;4.22;;;;;;;15.07;46.30;100531.53;10321935;28;20050;-81
2022/05/05 20:48:00;;;;;;;8.93;4.35;;;;;;;14.85;46.86;100531.31;10328724;28;20130;-81
2022/05/05 20:53:02;;;;;;;8.55;4.20;;;;;;;14.75;47.36;100538.16;10327363;28;20069;-81
2022/05/05 20:58:04;;;;;;;7.93;4.57;;;;;;;14.76;47.83;100543.31;10327048;28;20517;-81
2022/05/05 21:03:06;;;;;;;6.90;4.53;;;;;;;14.56;48.09;100546.44;10323331;28;20161;-81
2022/05/05 21:08:10;;;;;;;10.32;4.28;;;;;;;14.35;48.60;100553.91;10322450;28;20173;-81
2022/05/05 21:13:12;;;;;;;10.57;5.00;;;;;;;14.17;49.35;100560.38;10329657;28;20100;-81
2022/05/05 21:18:14;;;;;;;12.38;5.05;;;;;;;14.06;49.86;100554.97;10326486;28;20456;-81
2022/05/05 21:28:39;;;;;;;8.23;4.93;;;;;;;13.76;50.37;100560.38;10323203;28;20085;-80
2022/05/05 21:33:41;;;;;;;8.00;5.32;;;;;;;13.64;50.92;100570.81;10326861;28;20072;-81
2022/05/05 21:38:43;;;;;;;9.35;5.32;;;;;;;13.47;51.43;100574.50;10325338;28;20151;-81
2022/05/05 21:43:45;;;;;;;11.88;5.20;;;;;;;13.37;51.91;100577.75;10327495;28;20097;-82
2022/05/05 21:48:46;;;;;;;8.48;5.47;;;;;;;13.11;52.21;100578.50;10326066;28;20054;-81
2022/05/05 21:53:50;;;;;;;8.73;5.60;;;;;;;12.63;53.38;100585.69;10323882;28;20570;-81
2022/05/05 21:58:52;;;;;;;8.07;5.22;;;;;;;12.63;53.72;100595.31;10324028;28;20058;-81
2022/05/05 22:03:54;;;;;;;10.25;5.75;;;;;;;12.62;53.83;100593.66;10324711;28;20046;-81
2022/05/05 22:08:55;;;;;;;10.35;5.72;;;;;;;12.51;53.87;100602.13;10327625;28;20158;-81
2022/05/05 22:13:57;;;;;;;8.48;5.38;;;;;;;12.46;54.24;100598.91;10324520;28;20508;-81
2022/05/05 22:18:59;;;;;;;10.10;5.60;;;;;;;12.31;54.62;100601.56;10325445;28;20131;-81
2022/05/05 22:24:10;;;;;;;10.82;5.30;;;;;;;12.26;54.86;100607.03;10324192;28;20459;-82
2022/05/05 22:29:12;;;;;;;8.32;5.40;;;;;;;12.24;54.70;100608.88;10332917;28;20143;-81
2022/05/05 22:34:14;;;;;;;9.25;5.97;;;;;;;12.10;54.88;100611.44;10333491;28;20481;-81
2022/05/05 22:39:15;;;;;;;9.30;5.50;;;;;;;11.95;55.31;100612.25;10346462;28;20135;-81
2022/05/05 22:44:20;;;;;;;10.35;5.95;;;;;;;11.79;55.94;100622.75;10333143;28;20058;-81
2022/05/05 22:54:43;;;;;;;10.57;6.50;;;;;;;11.45;56.14;100625.47;10331119;28;20178;-81
2022/05/05 23:00:12;;;;;;;9.90;6.30;;;;;;;11.24;57.17;100632.66;10331234;28;20577;-81
2022/05/05 23:05:15;;;;;;;9.45;6.13;;;;;;;11.29;56.77;100629.81;10332906;28;20440;-81
2022/05/05 23:10:18;;;;;;;9.02;6.03;;;;;;;11.28;57.00;100636.81;10335434;28;20152;-81
2022/05/05 23:15:19;;;;;;;11.98;6.35;;;;;;;11.20;57.19;100635.50;10333642;28;20050;-81
2022/05/05 23:20:23;;;;;;;10.15;6.80;;;;;;;11.14;57.40;100639.28;10331311;28;20089;-81
2022/05/05 23:25:24;;;;;;;13.13;6.70;;;;;;;11.07;56.96;100640.50;10332906;28;20062;-81
2022/05/05 23:30:26;;;;;;;10.07;6.95;;;;;;;10.84;57.67;100646.03;10334090;28;20054;-81
2022/05/05 23:40:49;;;;;;;10.67;7.37;;;;;;;10.29;58.47;100641.78;10326834;28;20084;-81
2022/05/05 23:45:51;;;;;;;9.45;6.78;;;;;;;10.28;58.55;100646.16;10332839;28;20551;-81
2022/05/05 23:51:41;;;;;;;11.93;7.15;;;;;;;10.37;58.67;100642.25;10332455;28;20120;-81
2022/05/05 23:56:15;;;;;;;13.35;7.30;;;;;;;10.33;58.77;100648.53;10330417;28;20120;-80
